Terminal Aerodrome Forecast
Issued by NWS New Orleans/Baton Rouge, LA

Home | Current Version | Previous Version | Text Only | Print | Product List | Glossary On
Versions: 1 2 3 4 5 6 7 8 9 10 11 12 13 14 15 16 17 18
000
FTUS44 KLIX 232336
TAFNEW
TAF
KNEW 232336Z 2400/2424 35012KT P6SM SKC
     FM240400 34007KT P6SM SKC
     FM241000 32011G20KT P6SM SKC
     FM241300 35014G22KT P6SM SKC
     FM241900 32016G25KT P6SM SKC=

USA.gov is the U.S. government's official web portal to all federal, state and local government web resources and services.